<?xml version="1.0" encoding="UTF-8" standalone="no" ?>
<gpx xmlns="http://www.topografix.com/GPX/1/1" xmlns:xsi="http://www.w3.org/2001/XMLSchema-instance" xsi:schemaLocation="http://www.topografix.com/GPX/1/1 http://www.topografix.com/GPX/1/1/gpx.xsd" version="1.1" creator="VisuGPX - https://www.visugpx.com">
  <metadata>
    <name>rando copette</name>
    <desc><![CDATA[randonnée du 13 octobre Nesle la vallée]]></desc>
  </metadata>
  <trk>
    <name><![CDATA[2016-10-13 11:57:31]]></name>
    <trkseg>
      <trkpt lat="49.12941" lon="2.16736">
        <ele>44.84</ele>
        <time>2016-10-13T07:06:32Z</time>
      </trkpt>
      <trkpt lat="49.1295" lon="2.16732">
        <ele>43.4</ele>
        <time>2016-10-13T07:06:38Z</time>
      </trkpt>
      <trkpt lat="49.12962" lon="2.16724">
        <ele>46.28</ele>
        <time>2016-10-13T07:06:56Z</time>
      </trkpt>
      <trkpt lat="49.12978" lon="2.16732">
        <ele>41.47</ele>
        <time>2016-10-13T07:07:10Z</time>
      </trkpt>
      <trkpt lat="49.12985" lon="2.16741">
        <ele>39.55</ele>
        <time>2016-10-13T07:07:26Z</time>
      </trkpt>
      <trkpt lat="49.12998" lon="2.16752">
        <ele>38.11</ele>
        <time>2016-10-13T07:07:45Z</time>
      </trkpt>
      <trkpt lat="49.13004" lon="2.16774">
        <ele>39.55</ele>
        <time>2016-10-13T07:08:02Z</time>
      </trkpt>
      <trkpt lat="49.13014" lon="2.16786">
        <ele>39.55</ele>
        <time>2016-10-13T07:08:15Z</time>
      </trkpt>
      <trkpt lat="49.13036" lon="2.16797">
        <ele>36.67</ele>
        <time>2016-10-13T07:08:34Z</time>
      </trkpt>
      <trkpt lat="49.1304" lon="2.16801">
        <ele>36.19</ele>
        <time>2016-10-13T07:08:39Z</time>
      </trkpt>
      <trkpt lat="49.13063" lon="2.16815">
        <ele>34.74</ele>
        <time>2016-10-13T07:08:59Z</time>
      </trkpt>
      <trkpt lat="49.13079" lon="2.1682">
        <ele>34.26</ele>
        <time>2016-10-13T07:09:15Z</time>
      </trkpt>
      <trkpt lat="49.13097" lon="2.16824">
        <ele>32.34</ele>
        <time>2016-10-13T07:09:32Z</time>
      </trkpt>
      <trkpt lat="49.13115" lon="2.16828">
        <ele>30.9</ele>
        <time>2016-10-13T07:09:50Z</time>
      </trkpt>
      <trkpt lat="49.13136" lon="2.16853">
        <ele>28.5</ele>
        <time>2016-10-13T07:10:10Z</time>
      </trkpt>
      <trkpt lat="49.13158" lon="2.16871">
        <ele>26.57</ele>
        <time>2016-10-13T07:10:31Z</time>
      </trkpt>
      <trkpt lat="49.13168" lon="2.16887">
        <ele>27.53</ele>
        <time>2016-10-13T07:10:47Z</time>
      </trkpt>
      <trkpt lat="49.13189" lon="2.16912">
        <ele>28.98</ele>
        <time>2016-10-13T07:11:08Z</time>
      </trkpt>
      <trkpt lat="49.13208" lon="2.16932">
        <ele>23.21</ele>
        <time>2016-10-13T07:11:26Z</time>
      </trkpt>
      <trkpt lat="49.13221" lon="2.16942">
        <ele>21.77</ele>
        <time>2016-10-13T07:11:45Z</time>
      </trkpt>
      <trkpt lat="49.13228" lon="2.16938">
        <ele>20.81</ele>
        <time>2016-10-13T07:11:55Z</time>
      </trkpt>
      <trkpt lat="49.13249" lon="2.16938">
        <ele>19.36</ele>
        <time>2016-10-13T07:12:12Z</time>
      </trkpt>
      <trkpt lat="49.13267" lon="2.1693">
        <ele>19.36</ele>
        <time>2016-10-13T07:12:30Z</time>
      </trkpt>
      <trkpt lat="49.13291" lon="2.16926">
        <ele>18.88</ele>
        <time>2016-10-13T07:12:49Z</time>
      </trkpt>
      <trkpt lat="49.133" lon="2.16938">
        <ele>18.4</ele>
        <time>2016-10-13T07:12:57Z</time>
      </trkpt>
      <trkpt lat="49.13304" lon="2.16979">
        <ele>17.44</ele>
        <time>2016-10-13T07:13:15Z</time>
      </trkpt>
      <trkpt lat="49.13313" lon="2.1701">
        <ele>18.88</ele>
        <time>2016-10-13T07:13:32Z</time>
      </trkpt>
      <trkpt lat="49.13323" lon="2.17048">
        <ele>22.73</ele>
        <time>2016-10-13T07:13:52Z</time>
      </trkpt>
      <trkpt lat="49.13328" lon="2.17066">
        <ele>24.17</ele>
        <time>2016-10-13T07:14:06Z</time>
      </trkpt>
      <trkpt lat="49.13331" lon="2.17071">
        <ele>24.65</ele>
        <time>2016-10-13T07:14:11Z</time>
      </trkpt>
      <trkpt lat="49.13346" lon="2.17083">
        <ele>25.13</ele>
        <time>2016-10-13T07:14:30Z</time>
      </trkpt>
      <trkpt lat="49.13367" lon="2.17098">
        <ele>23.69</ele>
        <time>2016-10-13T07:14:51Z</time>
      </trkpt>
      <trkpt lat="49.13383" lon="2.17112">
        <ele>23.69</ele>
        <time>2016-10-13T07:15:09Z</time>
      </trkpt>
      <trkpt lat="49.13408" lon="2.17135">
        <ele>25.13</ele>
        <time>2016-10-13T07:15:34Z</time>
      </trkpt>
      <trkpt lat="49.13428" lon="2.17158">
        <ele>29.46</ele>
        <time>2016-10-13T07:15:57Z</time>
      </trkpt>
      <trkpt lat="49.1344" lon="2.17183">
        <ele>28.98</ele>
        <time>2016-10-13T07:16:15Z</time>
      </trkpt>
      <trkpt lat="49.1346" lon="2.17206">
        <ele>28.5</ele>
        <time>2016-10-13T07:16:35Z</time>
      </trkpt>
      <trkpt lat="49.13479" lon="2.17229">
        <ele>28.98</ele>
        <time>2016-10-13T07:16:54Z</time>
      </trkpt>
      <trkpt lat="49.13491" lon="2.17257">
        <ele>28.98</ele>
        <time>2016-10-13T07:17:12Z</time>
      </trkpt>
      <trkpt lat="49.13505" lon="2.17287">
        <ele>30.42</ele>
        <time>2016-10-13T07:17:29Z</time>
      </trkpt>
      <trkpt lat="49.13517" lon="2.17307">
        <ele>31.86</ele>
        <time>2016-10-13T07:17:45Z</time>
      </trkpt>
      <trkpt lat="49.13528" lon="2.17321">
        <ele>33.3</ele>
        <time>2016-10-13T07:17:59Z</time>
      </trkpt>
      <trkpt lat="49.13539" lon="2.17351">
        <ele>34.74</ele>
        <time>2016-10-13T07:18:17Z</time>
      </trkpt>
      <trkpt lat="49.13545" lon="2.17375">
        <ele>36.19</ele>
        <time>2016-10-13T07:18:34Z</time>
      </trkpt>
      <trkpt lat="49.13552" lon="2.17405">
        <ele>38.11</ele>
        <time>2016-10-13T07:18:51Z</time>
      </trkpt>
      <trkpt lat="49.13569" lon="2.17435">
        <ele>39.07</ele>
        <time>2016-10-13T07:19:11Z</time>
      </trkpt>
      <trkpt lat="49.13575" lon="2.17459">
        <ele>40.03</ele>
        <time>2016-10-13T07:19:24Z</time>
      </trkpt>
      <trkpt lat="49.13588" lon="2.17486">
        <ele>41.95</ele>
        <time>2016-10-13T07:19:42Z</time>
      </trkpt>
      <trkpt lat="49.136" lon="2.17513">
        <ele>43.4</ele>
        <time>2016-10-13T07:20:00Z</time>
      </trkpt>
      <trkpt lat="49.13614" lon="2.17544">
        <ele>44.84</ele>
        <time>2016-10-13T07:20:22Z</time>
      </trkpt>
      <trkpt lat="49.1363" lon="2.1757">
        <ele>45.32</ele>
        <time>2016-10-13T07:20:43Z</time>
      </trkpt>
      <trkpt lat="49.13647" lon="2.17598">
        <ele>45.32</ele>
        <time>2016-10-13T07:21:04Z</time>
      </trkpt>
      <trkpt lat="49.13665" lon="2.17624">
        <ele>45.32</ele>
        <time>2016-10-13T07:21:25Z</time>
      </trkpt>
      <trkpt lat="49.13678" lon="2.17645">
        <ele>45.8</ele>
        <time>2016-10-13T07:21:41Z</time>
      </trkpt>
      <trkpt lat="49.13683" lon="2.1765">
        <ele>46.28</ele>
        <time>2016-10-13T07:21:46Z</time>
      </trkpt>
      <trkpt lat="49.13687" lon="2.17657">
        <ele>46.28</ele>
        <time>2016-10-13T07:21:51Z</time>
      </trkpt>
      <trkpt lat="49.13704" lon="2.17681">
        <ele>47.24</ele>
        <time>2016-10-13T07:22:11Z</time>
      </trkpt>
      <trkpt lat="49.13717" lon="2.17701">
        <ele>47.24</ele>
        <time>2016-10-13T07:22:26Z</time>
      </trkpt>
      <trkpt lat="49.13727" lon="2.17716">
        <ele>46.76</ele>
        <time>2016-10-13T07:22:38Z</time>
      </trkpt>
      <trkpt lat="49.13732" lon="2.17723">
        <ele>46.76</ele>
        <time>2016-10-13T07:22:44Z</time>
      </trkpt>
      <trkpt lat="49.13746" lon="2.17742">
        <ele>46.76</ele>
        <time>2016-10-13T07:23:01Z</time>
      </trkpt>
      <trkpt lat="49.13757" lon="2.17759">
        <ele>46.76</ele>
        <time>2016-10-13T07:23:14Z</time>
      </trkpt>
      <trkpt lat="49.13769" lon="2.1778">
        <ele>46.76</ele>
        <time>2016-10-13T07:23:30Z</time>
      </trkpt>
      <trkpt lat="49.13779" lon="2.17802">
        <ele>46.28</ele>
        <time>2016-10-13T07:23:45Z</time>
      </trkpt>
      <trkpt lat="49.13782" lon="2.17812">
        <ele>46.28</ele>
        <time>2016-10-13T07:23:51Z</time>
      </trkpt>
      <trkpt lat="49.13793" lon="2.17836">
        <ele>46.76</ele>
        <time>2016-10-13T07:24:06Z</time>
      </trkpt>
      <trkpt lat="49.13803" lon="2.17859">
        <ele>47.72</ele>
        <time>2016-10-13T07:24:22Z</time>
      </trkpt>
      <trkpt lat="49.13815" lon="2.17881">
        <ele>48.2</ele>
        <time>2016-10-13T07:24:38Z</time>
      </trkpt>
      <trkpt lat="49.13823" lon="2.17894">
        <ele>48.68</ele>
        <time>2016-10-13T07:24:48Z</time>
      </trkpt>
      <trkpt lat="49.13826" lon="2.17898">
        <ele>49.16</ele>
        <time>2016-10-13T07:24:52Z</time>
      </trkpt>
      <trkpt lat="49.13839" lon="2.17919">
        <ele>50.13</ele>
        <time>2016-10-13T07:25:08Z</time>
      </trkpt>
      <trkpt lat="49.13855" lon="2.17937">
        <ele>51.09</ele>
        <time>2016-10-13T07:25:25Z</time>
      </trkpt>
      <trkpt lat="49.13871" lon="2.17952">
        <ele>51.09</ele>
        <time>2016-10-13T07:25:41Z</time>
      </trkpt>
      <trkpt lat="49.13883" lon="2.17963">
        <ele>51.09</ele>
        <time>2016-10-13T07:25:51Z</time>
      </trkpt>
      <trkpt lat="49.13901" lon="2.17977">
        <ele>51.57</ele>
        <time>2016-10-13T07:26:08Z</time>
      </trkpt>
      <trkpt lat="49.13916" lon="2.17988">
        <ele>53.97</ele>
        <time>2016-10-13T07:26:22Z</time>
      </trkpt>
      <trkpt lat="49.13935" lon="2.17999">
        <ele>55.89</ele>
        <time>2016-10-13T07:26:39Z</time>
      </trkpt>
      <trkpt lat="49.13955" lon="2.18006">
        <ele>55.89</ele>
        <time>2016-10-13T07:26:55Z</time>
      </trkpt>
      <trkpt lat="49.13973" lon="2.18012">
        <ele>54.93</ele>
        <time>2016-10-13T07:27:10Z</time>
      </trkpt>
      <trkpt lat="49.13986" lon="2.18015">
        <ele>53.97</ele>
        <time>2016-10-13T07:27:21Z</time>
      </trkpt>
      <trkpt lat="49.14001" lon="2.18024">
        <ele>53.01</ele>
        <time>2016-10-13T07:27:35Z</time>
      </trkpt>
      <trkpt lat="49.14001" lon="2.18024">
        <ele>53.01</ele>
        <time>2016-10-13T07:27:36Z</time>
      </trkpt>
      <trkpt lat="49.14005" lon="2.18027">
        <ele>53.01</ele>
        <time>2016-10-13T07:27:40Z</time>
      </trkpt>
      <trkpt lat="49.14021" lon="2.18041">
        <ele>52.53</ele>
        <time>2016-10-13T07:27:58Z</time>
      </trkpt>
      <trkpt lat="49.14031" lon="2.18059">
        <ele>53.49</ele>
        <time>2016-10-13T07:28:18Z</time>
      </trkpt>
      <trkpt lat="49.14057" lon="2.18078">
        <ele>54.93</ele>
        <time>2016-10-13T07:28:38Z</time>
      </trkpt>
      <trkpt lat="49.14071" lon="2.18094">
        <ele>55.89</ele>
        <time>2016-10-13T07:28:55Z</time>
      </trkpt>
      <trkpt lat="49.14085" lon="2.18118">
        <ele>59.26</ele>
        <time>2016-10-13T07:29:15Z</time>
      </trkpt>
      <trkpt lat="49.14104" lon="2.1814">
        <ele>57.82</ele>
        <time>2016-10-13T07:29:32Z</time>
      </trkpt>
      <trkpt lat="49.14129" lon="2.18164">
        <ele>55.89</ele>
        <time>2016-10-13T07:29:50Z</time>
      </trkpt>
      <trkpt lat="49.14146" lon="2.18182">
        <ele>55.41</ele>
        <time>2016-10-13T07:30:06Z</time>
      </trkpt>
      <trkpt lat="49.14164" lon="2.18194">
        <ele>57.82</ele>
        <time>2016-10-13T07:30:24Z</time>
      </trkpt>
      <trkpt lat="49.14184" lon="2.18206">
        <ele>57.34</ele>
        <time>2016-10-13T07:30:43Z</time>
      </trkpt>
      <trkpt lat="49.14205" lon="2.18212">
        <ele>54.93</ele>
        <time>2016-10-13T07:31:00Z</time>
      </trkpt>
      <trkpt lat="49.14216" lon="2.1822">
        <ele>54.93</ele>
        <time>2016-10-13T07:31:17Z</time>
      </trkpt>
      <trkpt lat="49.14228" lon="2.18235">
        <ele>54.93</ele>
        <time>2016-10-13T07:31:35Z</time>
      </trkpt>
      <trkpt lat="49.14236" lon="2.1823">
        <ele>55.89</ele>
        <time>2016-10-13T07:31:56Z</time>
      </trkpt>
      <trkpt lat="49.14252" lon="2.18224">
        <ele>55.89</ele>
        <time>2016-10-13T07:32:16Z</time>
      </trkpt>
      <trkpt lat="49.14261" lon="2.1822">
        <ele>55.41</ele>
        <time>2016-10-13T07:32:34Z</time>
      </trkpt>
      <trkpt lat="49.14275" lon="2.18213">
        <ele>55.89</ele>
        <time>2016-10-13T07:32:53Z</time>
      </trkpt>
      <trkpt lat="49.14289" lon="2.18211">
        <ele>58.78</ele>
        <time>2016-10-13T07:33:14Z</time>
      </trkpt>
      <trkpt lat="49.14304" lon="2.18211">
        <ele>60.7</ele>
        <time>2016-10-13T07:33:33Z</time>
      </trkpt>
      <trkpt lat="49.14323" lon="2.18207">
        <ele>63.1</ele>
        <time>2016-10-13T07:33:52Z</time>
      </trkpt>
      <trkpt lat="49.14336" lon="2.18201">
        <ele>65.03</ele>
        <time>2016-10-13T07:34:10Z</time>
      </trkpt>
      <trkpt lat="49.1435" lon="2.18195">
        <ele>66.47</ele>
        <time>2016-10-13T07:34:28Z</time>
      </trkpt>
      <trkpt lat="49.14367" lon="2.18196">
        <ele>69.35</ele>
        <time>2016-10-13T07:34:47Z</time>
      </trkpt>
      <trkpt lat="49.14381" lon="2.18196">
        <ele>74.64</ele>
        <time>2016-10-13T07:35:04Z</time>
      </trkpt>
      <trkpt lat="49.144" lon="2.182">
        <ele>77.04</ele>
        <time>2016-10-13T07:35:22Z</time>
      </trkpt>
      <trkpt lat="49.14416" lon="2.18211">
        <ele>75.6</ele>
        <time>2016-10-13T07:35:40Z</time>
      </trkpt>
      <trkpt lat="49.1443" lon="2.18236">
        <ele>77.04</ele>
        <time>2016-10-13T07:35:58Z</time>
      </trkpt>
      <trkpt lat="49.14439" lon="2.18257">
        <ele>78</ele>
        <time>2016-10-13T07:36:15Z</time>
      </trkpt>
      <trkpt lat="49.14444" lon="2.18257">
        <ele>79.45</ele>
        <time>2016-10-13T07:36:32Z</time>
      </trkpt>
      <trkpt lat="49.1445" lon="2.18258">
        <ele>82.33</ele>
        <time>2016-10-13T07:36:51Z</time>
      </trkpt>
      <trkpt lat="49.14462" lon="2.18253">
        <ele>83.77</ele>
        <time>2016-10-13T07:37:09Z</time>
      </trkpt>
      <trkpt lat="49.14477" lon="2.18265">
        <ele>84.25</ele>
        <time>2016-10-13T07:37:27Z</time>
      </trkpt>
      <trkpt lat="49.1448" lon="2.18274">
        <ele>85.21</ele>
        <time>2016-10-13T07:37:55Z</time>
      </trkpt>
      <trkpt lat="49.14485" lon="2.18277">
        <ele>88.1</ele>
        <time>2016-10-13T07:38:17Z</time>
      </trkpt>
      <trkpt lat="49.14485" lon="2.18286">
        <ele>92.42</ele>
        <time>2016-10-13T07:38:40Z</time>
      </trkpt>
      <trkpt lat="49.14483" lon="2.18291">
        <ele>93.39</ele>
        <time>2016-10-13T07:39:08Z</time>
      </trkpt>
      <trkpt lat="49.14491" lon="2.18303">
        <ele>93.39</ele>
        <time>2016-10-13T07:39:27Z</time>
      </trkpt>
      <trkpt lat="49.14499" lon="2.18312">
        <ele>90.02</ele>
        <time>2016-10-13T07:39:43Z</time>
      </trkpt>
      <trkpt lat="49.14511" lon="2.18323">
        <ele>88.1</ele>
        <time>2016-10-13T07:40:00Z</time>
      </trkpt>
      <trkpt lat="49.14524" lon="2.18342">
        <ele>84.25</ele>
        <time>2016-10-13T07:40:19Z</time>
      </trkpt>
      <trkpt lat="49.14537" lon="2.18358">
        <ele>80.41</ele>
        <time>2016-10-13T07:40:36Z</time>
      </trkpt>
      <trkpt lat="49.1455" lon="2.1838">
        <ele>77.04</ele>
        <time>2016-10-13T07:40:53Z</time>
      </trkpt>
      <trkpt lat="49.14563" lon="2.18401">
        <ele>73.68</ele>
        <time>2016-10-13T07:41:11Z</time>
      </trkpt>
      <trkpt lat="49.14575" lon="2.18429">
        <ele>77.04</ele>
        <time>2016-10-13T07:41:31Z</time>
      </trkpt>
      <trkpt lat="49.14585" lon="2.18456">
        <ele>80.41</ele>
        <time>2016-10-13T07:41:50Z</time>
      </trkpt>
      <trkpt lat="49.14596" lon="2.18487">
        <ele>82.81</ele>
        <time>2016-10-13T07:42:09Z</time>
      </trkpt>
      <trkpt lat="49.14607" lon="2.18507">
        <ele>84.73</ele>
        <time>2016-10-13T07:42:23Z</time>
      </trkpt>
      <trkpt lat="49.14618" lon="2.1853">
        <ele>86.18</ele>
        <time>2016-10-13T07:42:40Z</time>
      </trkpt>
      <trkpt lat="49.14627" lon="2.18556">
        <ele>87.14</ele>
        <time>2016-10-13T07:42:57Z</time>
      </trkpt>
      <trkpt lat="49.14633" lon="2.18571">
        <ele>88.58</ele>
        <time>2016-10-13T07:43:14Z</time>
      </trkpt>
      <trkpt lat="49.14641" lon="2.18568">
        <ele>90.5</ele>
        <time>2016-10-13T07:43:28Z</time>
      </trkpt>
      <trkpt lat="49.14641" lon="2.18569">
        <ele>91.94</ele>
        <time>2016-10-13T07:43:45Z</time>
      </trkpt>
      <trkpt lat="49.14646" lon="2.18567">
        <ele>93.87</ele>
        <time>2016-10-13T07:44:01Z</time>
      </trkpt>
      <trkpt lat="49.14645" lon="2.18568">
        <ele>95.31</ele>
        <time>2016-10-13T07:44:17Z</time>
      </trkpt>
      <trkpt lat="49.14631" lon="2.18579">
        <ele>94.83</ele>
        <time>2016-10-13T07:44:32Z</time>
      </trkpt>
      <trkpt lat="49.14619" lon="2.18586">
        <ele>94.35</ele>
        <time>2016-10-13T07:44:46Z</time>
      </trkpt>
      <trkpt lat="49.14605" lon="2.18597">
        <ele>95.31</ele>
        <time>2016-10-13T07:45:01Z</time>
      </trkpt>
      <trkpt lat="49.14604" lon="2.18599">
        <ele>95.31</ele>
        <time>2016-10-13T07:45:03Z</time>
      </trkpt>
      <trkpt lat="49.1459" lon="2.1861">
        <ele>96.27</ele>
        <time>2016-10-13T07:45:18Z</time>
      </trkpt>
      <trkpt lat="49.14576" lon="2.18624">
        <ele>96.75</ele>
        <time>2016-10-13T07:45:34Z</time>
      </trkpt>
      <trkpt lat="49.14563" lon="2.18636">
        <ele>98.67</ele>
        <time>2016-10-13T07:45:48Z</time>
      </trkpt>
      <trkpt lat="49.1455" lon="2.18648">
        <ele>100.11</ele>
        <time>2016-10-13T07:46:05Z</time>
      </trkpt>
      <trkpt lat="49.14534" lon="2.18662">
        <ele>101.56</ele>
        <time>2016-10-13T07:46:22Z</time>
      </trkpt>
      <trkpt lat="49.14519" lon="2.18677">
        <ele>100.6</ele>
        <time>2016-10-13T07:46:38Z</time>
      </trkpt>
      <trkpt lat="49.14506" lon="2.18698">
        <ele>99.63</ele>
        <time>2016-10-13T07:46:55Z</time>
      </trkpt>
      <trkpt lat="49.14492" lon="2.18711">
        <ele>98.67</ele>
        <time>2016-10-13T07:47:12Z</time>
      </trkpt>
      <trkpt lat="49.14476" lon="2.18716">
        <ele>94.35</ele>
        <time>2016-10-13T07:47:29Z</time>
      </trkpt>
      <trkpt lat="49.14457" lon="2.18723">
        <ele>93.39</ele>
        <time>2016-10-13T07:47:50Z</time>
      </trkpt>
      <trkpt lat="49.14438" lon="2.1873">
        <ele>92.42</ele>
        <time>2016-10-13T07:48:10Z</time>
      </trkpt>
      <trkpt lat="49.14421" lon="2.1874">
        <ele>90.5</ele>
        <time>2016-10-13T07:48:28Z</time>
      </trkpt>
      <trkpt lat="49.14421" lon="2.18748">
        <ele>89.06</ele>
        <time>2016-10-13T07:48:42Z</time>
      </trkpt>
      <trkpt lat="49.14432" lon="2.18764">
        <ele>85.69</ele>
        <time>2016-10-13T07:48:59Z</time>
      </trkpt>
      <trkpt lat="49.14443" lon="2.18789">
        <ele>84.25</ele>
        <time>2016-10-13T07:49:19Z</time>
      </trkpt>
      <trkpt lat="49.14458" lon="2.18817">
        <ele>84.25</ele>
        <time>2016-10-13T07:49:40Z</time>
      </trkpt>
      <trkpt lat="49.14472" lon="2.18843">
        <ele>84.73</ele>
        <time>2016-10-13T07:49:57Z</time>
      </trkpt>
      <trkpt lat="49.14484" lon="2.18864">
        <ele>82.81</ele>
        <time>2016-10-13T07:50:11Z</time>
      </trkpt>
      <trkpt lat="49.14499" lon="2.1889">
        <ele>78.48</ele>
        <time>2016-10-13T07:50:28Z</time>
      </trkpt>
      <trkpt lat="49.1451" lon="2.18918">
        <ele>76.08</ele>
        <time>2016-10-13T07:50:45Z</time>
      </trkpt>
      <trkpt lat="49.14524" lon="2.18947">
        <ele>78.48</ele>
        <time>2016-10-13T07:51:02Z</time>
      </trkpt>
      <trkpt lat="49.1454" lon="2.18976">
        <ele>82.81</ele>
        <time>2016-10-13T07:51:18Z</time>
      </trkpt>
      <trkpt lat="49.14552" lon="2.19007">
        <ele>85.21</ele>
        <time>2016-10-13T07:51:36Z</time>
      </trkpt>
      <trkpt lat="49.14565" lon="2.19035">
        <ele>89.06</ele>
        <time>2016-10-13T07:51:55Z</time>
      </trkpt>
      <trkpt lat="49.14575" lon="2.19061">
        <ele>91.46</ele>
        <time>2016-10-13T07:52:12Z</time>
      </trkpt>
      <trkpt lat="49.14585" lon="2.19076">
        <ele>94.83</ele>
        <time>2016-10-13T07:52:29Z</time>
      </trkpt>
      <trkpt lat="49.14597" lon="2.1908">
        <ele>96.75</ele>
        <time>2016-10-13T07:52:46Z</time>
      </trkpt>
      <trkpt lat="49.14614" lon="2.19087">
        <ele>101.08</ele>
        <time>2016-10-13T07:53:01Z</time>
      </trkpt>
      <trkpt lat="49.14633" lon="2.19092">
        <ele>102.04</ele>
        <time>2016-10-13T07:53:21Z</time>
      </trkpt>
      <trkpt lat="49.14651" lon="2.19095">
        <ele>100.6</ele>
        <time>2016-10-13T07:53:38Z</time>
      </trkpt>
      <trkpt lat="49.14671" lon="2.19098">
        <ele>98.19</ele>
        <time>2016-10-13T07:53:57Z</time>
      </trkpt>
      <trkpt lat="49.14692" lon="2.19099">
        <ele>97.23</ele>
        <time>2016-10-13T07:54:14Z</time>
      </trkpt>
      <trkpt lat="49.14713" lon="2.19099">
        <ele>99.15</ele>
        <time>2016-10-13T07:54:32Z</time>
      </trkpt>
      <trkpt lat="49.14737" lon="2.19103">
        <ele>100.6</ele>
        <time>2016-10-13T07:54:52Z</time>
      </trkpt>
      <trkpt lat="49.14757" lon="2.19104">
        <ele>101.08</ele>
        <time>2016-10-13T07:55:13Z</time>
      </trkpt>
      <trkpt lat="49.14772" lon="2.1911">
        <ele>102.52</ele>
        <time>2016-10-13T07:55:30Z</time>
      </trkpt>
      <trkpt lat="49.14794" lon="2.19115">
        <ele>103.48</ele>
        <time>2016-10-13T07:55:50Z</time>
      </trkpt>
      <trkpt lat="49.14813" lon="2.19114">
        <ele>103.96</ele>
        <time>2016-10-13T07:56:09Z</time>
      </trkpt>
      <trkpt lat="49.14836" lon="2.19115">
        <ele>105.88</ele>
        <time>2016-10-13T07:56:27Z</time>
      </trkpt>
      <trkpt lat="49.14836" lon="2.19134">
        <ele>106.84</ele>
        <time>2016-10-13T07:56:45Z</time>
      </trkpt>
      <trkpt lat="49.1484" lon="2.19159">
        <ele>110.69</ele>
        <time>2016-10-13T07:57:03Z</time>
      </trkpt>
      <trkpt lat="49.14846" lon="2.19178">
        <ele>113.09</ele>
        <time>2016-10-13T07:57:21Z</time>
      </trkpt>
      <trkpt lat="49.14862" lon="2.19192">
        <ele>117.42</ele>
        <time>2016-10-13T07:57:40Z</time>
      </trkpt>
      <trkpt lat="49.14865" lon="2.19208">
        <ele>122.22</ele>
        <time>2016-10-13T07:58:06Z</time>
      </trkpt>
      <trkpt lat="49.14867" lon="2.19216">
        <ele>126.55</ele>
        <time>2016-10-13T07:58:34Z</time>
      </trkpt>
      <trkpt lat="49.1486" lon="2.19216">
        <ele>127.51</ele>
        <time>2016-10-13T07:58:57Z</time>
      </trkpt>
      <trkpt lat="49.14867" lon="2.19221">
        <ele>126.55</ele>
        <time>2016-10-13T07:59:20Z</time>
      </trkpt>
      <trkpt lat="49.14862" lon="2.19215">
        <ele>131.36</ele>
        <time>2016-10-13T07:59:47Z</time>
      </trkpt>
      <trkpt lat="49.14866" lon="2.19215">
        <ele>132.8</ele>
        <time>2016-10-13T08:00:06Z</time>
      </trkpt>
      <trkpt lat="49.14863" lon="2.19213">
        <ele>133.28</ele>
        <time>2016-10-13T08:00:27Z</time>
      </trkpt>
      <trkpt lat="49.14855" lon="2.19224">
        <ele>135.68</ele>
        <time>2016-10-13T08:00:45Z</time>
      </trkpt>
      <trkpt lat="49.14855" lon="2.1924">
        <ele>135.68</ele>
        <time>2016-10-13T08:01:02Z</time>
      </trkpt>
      <trkpt lat="49.14847" lon="2.19263">
        <ele>133.28</ele>
        <time>2016-10-13T08:01:21Z</time>
      </trkpt>
      <trkpt lat="49.14833" lon="2.19284">
        <ele>131.84</ele>
        <time>2016-10-13T08:01:38Z</time>
      </trkpt>
      <trkpt lat="49.1483" lon="2.19312">
        <ele>128.95</ele>
        <time>2016-10-13T08:01:55Z</time>
      </trkpt>
      <trkpt lat="49.14825" lon="2.19352">
        <ele>129.92</ele>
        <time>2016-10-13T08:02:15Z</time>
      </trkpt>
      <trkpt lat="49.14823" lon="2.1938">
        <ele>131.36</ele>
        <time>2016-10-13T08:02:31Z</time>
      </trkpt>
      <trkpt lat="49.14818" lon="2.19424">
        <ele>131.36</ele>
        <time>2016-10-13T08:02:50Z</time>
      </trkpt>
      <trkpt lat="49.14817" lon="2.19435">
        <ele>131.84</ele>
        <time>2016-10-13T08:02:57Z</time>
      </trkpt>
      <trkpt lat="49.14812" lon="2.19466">
        <ele>129.92</ele>
        <time>2016-10-13T08:03:12Z</time>
      </trkpt>
      <trkpt lat="49.14805" lon="2.19495">
        <ele>127.99</ele>
        <time>2016-10-13T08:03:28Z</time>
      </trkpt>
      <trkpt lat="49.14807" lon="2.19523">
        <ele>127.51</ele>
        <time>2016-10-13T08:03:46Z</time>
      </trkpt>
      <trkpt lat="49.148" lon="2.19557">
        <ele>126.07</ele>
        <time>2016-10-13T08:04:06Z</time>
      </trkpt>
      <trkpt lat="49.14793" lon="2.19569">
        <ele>125.11</ele>
        <time>2016-10-13T08:04:19Z</time>
      </trkpt>
      <trkpt lat="49.14783" lon="2.19573">
        <ele>123.19</ele>
        <time>2016-10-13T08:04:36Z</time>
      </trkpt>
      <trkpt lat="49.14768" lon="2.19576">
        <ele>121.26</ele>
        <time>2016-10-13T08:04:55Z</time>
      </trkpt>
      <trkpt lat="49.1475" lon="2.19583">
        <ele>120.3</ele>
        <time>2016-10-13T08:05:13Z</time>
      </trkpt>
      <trkpt lat="49.14727" lon="2.19586">
        <ele>119.34</ele>
        <time>2016-10-13T08:05:33Z</time>
      </trkpt>
      <trkpt lat="49.14705" lon="2.19595">
        <ele>118.86</ele>
        <time>2016-10-13T08:05:50Z</time>
      </trkpt>
      <trkpt lat="49.14684" lon="2.19605">
        <ele>115.5</ele>
        <time>2016-10-13T08:06:09Z</time>
      </trkpt>
      <trkpt lat="49.14661" lon="2.19614">
        <ele>113.57</ele>
        <time>2016-10-13T08:06:30Z</time>
      </trkpt>
      <trkpt lat="49.14639" lon="2.19621">
        <ele>110.69</ele>
        <time>2016-10-13T08:06:49Z</time>
      </trkpt>
      <trkpt lat="49.14617" lon="2.1963">
        <ele>109.25</ele>
        <time>2016-10-13T08:07:08Z</time>
      </trkpt>
      <trkpt lat="49.14593" lon="2.19642">
        <ele>107.32</ele>
        <time>2016-10-13T08:07:26Z</time>
      </trkpt>
      <trkpt lat="49.14575" lon="2.19647">
        <ele>103</ele>
        <time>2016-10-13T08:07:43Z</time>
      </trkpt>
      <trkpt lat="49.14553" lon="2.19661">
        <ele>102.52</ele>
        <time>2016-10-13T08:08:01Z</time>
      </trkpt>
      <trkpt lat="49.14532" lon="2.19671">
        <ele>98.19</ele>
        <time>2016-10-13T08:08:19Z</time>
      </trkpt>
      <trkpt lat="49.14514" lon="2.19677">
        <ele>92.42</ele>
        <time>2016-10-13T08:08:34Z</time>
      </trkpt>
      <trkpt lat="49.14497" lon="2.19684">
        <ele>87.62</ele>
        <time>2016-10-13T08:08:52Z</time>
      </trkpt>
      <trkpt lat="49.14477" lon="2.19687">
        <ele>82.81</ele>
        <time>2016-10-13T08:09:09Z</time>
      </trkpt>
      <trkpt lat="49.14452" lon="2.19695">
        <ele>78.48</ele>
        <time>2016-10-13T08:09:29Z</time>
      </trkpt>
      <trkpt lat="49.14434" lon="2.19707">
        <ele>79.45</ele>
        <time>2016-10-13T08:09:46Z</time>
      </trkpt>
      <trkpt lat="49.14423" lon="2.19712">
        <ele>80.41</ele>
        <time>2016-10-13T08:10:01Z</time>
      </trkpt>
      <trkpt lat="49.14409" lon="2.1972">
        <ele>82.81</ele>
        <time>2016-10-13T08:10:16Z</time>
      </trkpt>
      <trkpt lat="49.14387" lon="2.19725">
        <ele>80.89</ele>
        <time>2016-10-13T08:10:34Z</time>
      </trkpt>
      <trkpt lat="49.14368" lon="2.19735">
        <ele>81.37</ele>
        <time>2016-10-13T08:10:53Z</time>
      </trkpt>
      <trkpt lat="49.14361" lon="2.19748">
        <ele>86.18</ele>
        <time>2016-10-13T08:11:10Z</time>
      </trkpt>
      <trkpt lat="49.14351" lon="2.19747">
        <ele>89.54</ele>
        <time>2016-10-13T08:11:29Z</time>
      </trkpt>
      <trkpt lat="49.14349" lon="2.19759">
        <ele>91.94</ele>
        <time>2016-10-13T08:11:58Z</time>
      </trkpt>
      <trkpt lat="49.14343" lon="2.19757">
        <ele>94.35</ele>
        <time>2016-10-13T08:12:25Z</time>
      </trkpt>
      <trkpt lat="49.14332" lon="2.19759">
        <ele>93.39</ele>
        <time>2016-10-13T08:12:41Z</time>
      </trkpt>
      <trkpt lat="49.14334" lon="2.19767">
        <ele>97.71</ele>
        <time>2016-10-13T08:13:07Z</time>
      </trkpt>
      <trkpt lat="49.1433" lon="2.19766">
        <ele>98.67</ele>
        <time>2016-10-13T08:13:27Z</time>
      </trkpt>
      <trkpt lat="49.14318" lon="2.19779">
        <ele>100.6</ele>
        <time>2016-10-13T08:13:43Z</time>
      </trkpt>
      <trkpt lat="49.14311" lon="2.19804">
        <ele>102.52</ele>
        <time>2016-10-13T08:13:58Z</time>
      </trkpt>
      <trkpt lat="49.14309" lon="2.19807">
        <ele>102.52</ele>
        <time>2016-10-13T08:14:00Z</time>
      </trkpt>
      <trkpt lat="49.14297" lon="2.19835">
        <ele>103.48</ele>
        <time>2016-10-13T08:14:18Z</time>
      </trkpt>
      <trkpt lat="49.1429" lon="2.19853">
        <ele>104.92</ele>
        <time>2016-10-13T08:14:29Z</time>
      </trkpt>
      <trkpt lat="49.14275" lon="2.19868">
        <ele>106.36</ele>
        <time>2016-10-13T08:14:47Z</time>
      </trkpt>
      <trkpt lat="49.14263" lon="2.19873">
        <ele>103.48</ele>
        <time>2016-10-13T08:15:05Z</time>
      </trkpt>
      <trkpt lat="49.14249" lon="2.19886">
        <ele>101.56</ele>
        <time>2016-10-13T08:15:21Z</time>
      </trkpt>
      <trkpt lat="49.14235" lon="2.19897">
        <ele>101.56</ele>
        <time>2016-10-13T08:15:35Z</time>
      </trkpt>
      <trkpt lat="49.14227" lon="2.19902">
        <ele>102.04</ele>
        <time>2016-10-13T08:15:42Z</time>
      </trkpt>
      <trkpt lat="49.1421" lon="2.19913">
        <ele>102.52</ele>
        <time>2016-10-13T08:15:58Z</time>
      </trkpt>
      <trkpt lat="49.14191" lon="2.19918">
        <ele>102.52</ele>
        <time>2016-10-13T08:16:14Z</time>
      </trkpt>
      <trkpt lat="49.14172" lon="2.19921">
        <ele>100.11</ele>
        <time>2016-10-13T08:16:30Z</time>
      </trkpt>
      <trkpt lat="49.14153" lon="2.19922">
        <ele>98.67</ele>
        <time>2016-10-13T08:16:45Z</time>
      </trkpt>
      <trkpt lat="49.14132" lon="2.1992">
        <ele>97.23</ele>
        <time>2016-10-13T08:17:02Z</time>
      </trkpt>
      <trkpt lat="49.14112" lon="2.19917">
        <ele>96.27</ele>
        <time>2016-10-13T08:17:18Z</time>
      </trkpt>
      <trkpt lat="49.14092" lon="2.19915">
        <ele>96.27</ele>
        <time>2016-10-13T08:17:34Z</time>
      </trkpt>
      <trkpt lat="49.14072" lon="2.19913">
        <ele>95.79</ele>
        <time>2016-10-13T08:17:50Z</time>
      </trkpt>
      <trkpt lat="49.1405" lon="2.1991">
        <ele>94.83</ele>
        <time>2016-10-13T08:18:07Z</time>
      </trkpt>
      <trkpt lat="49.14025" lon="2.19909">
        <ele>95.79</ele>
        <time>2016-10-13T08:18:26Z</time>
      </trkpt>
      <trkpt lat="49.14004" lon="2.19913">
        <ele>97.23</ele>
        <time>2016-10-13T08:18:43Z</time>
      </trkpt>
      <trkpt lat="49.13984" lon="2.19916">
        <ele>97.23</ele>
        <time>2016-10-13T08:18:59Z</time>
      </trkpt>
      <trkpt lat="49.13965" lon="2.19919">
        <ele>97.23</ele>
        <time>2016-10-13T08:19:15Z</time>
      </trkpt>
      <trkpt lat="49.13946" lon="2.19922">
        <ele>98.19</ele>
        <time>2016-10-13T08:19:31Z</time>
      </trkpt>
      <trkpt lat="49.13925" lon="2.19925">
        <ele>99.15</ele>
        <time>2016-10-13T08:19:48Z</time>
      </trkpt>
      <trkpt lat="49.13903" lon="2.19928">
        <ele>99.15</ele>
        <time>2016-10-13T08:20:05Z</time>
      </trkpt>
      <trkpt lat="49.13879" lon="2.19932">
        <ele>98.67</ele>
        <time>2016-10-13T08:20:23Z</time>
      </trkpt>
      <trkpt lat="49.13864" lon="2.19941">
        <ele>98.19</ele>
        <time>2016-10-13T08:20:36Z</time>
      </trkpt>
      <trkpt lat="49.13846" lon="2.1995">
        <ele>96.27</ele>
        <time>2016-10-13T08:20:52Z</time>
      </trkpt>
      <trkpt lat="49.13828" lon="2.19957">
        <ele>96.75</ele>
        <time>2016-10-13T08:21:07Z</time>
      </trkpt>
      <trkpt lat="49.13808" lon="2.19963">
        <ele>96.27</ele>
        <time>2016-10-13T08:21:23Z</time>
      </trkpt>
      <trkpt lat="49.13789" lon="2.1997">
        <ele>95.79</ele>
        <time>2016-10-13T08:21:39Z</time>
      </trkpt>
      <trkpt lat="49.1377" lon="2.1998">
        <ele>95.31</ele>
        <time>2016-10-13T08:21:56Z</time>
      </trkpt>
      <trkpt lat="49.13749" lon="2.19981">
        <ele>95.31</ele>
        <time>2016-10-13T08:22:13Z</time>
      </trkpt>
      <trkpt lat="49.13728" lon="2.1998">
        <ele>94.35</ele>
        <time>2016-10-13T08:22:29Z</time>
      </trkpt>
      <trkpt lat="49.13706" lon="2.19979">
        <ele>95.31</ele>
        <time>2016-10-13T08:22:47Z</time>
      </trkpt>
      <trkpt lat="49.13703" lon="2.19978">
        <ele>95.31</ele>
        <time>2016-10-13T08:22:50Z</time>
      </trkpt>
      <trkpt lat="49.13696" lon="2.19982">
        <ele>94.83</ele>
        <time>2016-10-13T08:23:06Z</time>
      </trkpt>
      <trkpt lat="49.13694" lon="2.19982">
        <ele>93.87</ele>
        <time>2016-10-13T08:23:14Z</time>
      </trkpt>
      <trkpt lat="49.13675" lon="2.19973">
        <ele>93.39</ele>
        <time>2016-10-13T08:23:30Z</time>
      </trkpt>
      <trkpt lat="49.13663" lon="2.19968">
        <ele>92.9</ele>
        <time>2016-10-13T08:23:44Z</time>
      </trkpt>
      <trkpt lat="49.13646" lon="2.19964">
        <ele>91.94</ele>
        <time>2016-10-13T08:23:58Z</time>
      </trkpt>
      <trkpt lat="49.13625" lon="2.19958">
        <ele>92.42</ele>
        <time>2016-10-13T08:24:15Z</time>
      </trkpt>
      <trkpt lat="49.13601" lon="2.19952">
        <ele>90.5</ele>
        <time>2016-10-13T08:24:35Z</time>
      </trkpt>
      <trkpt lat="49.1358" lon="2.19946">
        <ele>90.02</ele>
        <time>2016-10-13T08:24:52Z</time>
      </trkpt>
      <trkpt lat="49.13564" lon="2.1994">
        <ele>89.54</ele>
        <time>2016-10-13T08:25:08Z</time>
      </trkpt>
      <trkpt lat="49.13547" lon="2.19932">
        <ele>90.02</ele>
        <time>2016-10-13T08:25:25Z</time>
      </trkpt>
      <trkpt lat="49.13525" lon="2.19921">
        <ele>92.42</ele>
        <time>2016-10-13T08:25:43Z</time>
      </trkpt>
      <trkpt lat="49.13505" lon="2.19916">
        <ele>95.79</ele>
        <time>2016-10-13T08:26:00Z</time>
      </trkpt>
      <trkpt lat="49.13483" lon="2.19911">
        <ele>95.31</ele>
        <time>2016-10-13T08:26:18Z</time>
      </trkpt>
      <trkpt lat="49.1346" lon="2.19906">
        <ele>93.39</ele>
        <time>2016-10-13T08:26:37Z</time>
      </trkpt>
      <trkpt lat="49.1344" lon="2.19909">
        <ele>93.87</ele>
        <time>2016-10-13T08:26:52Z</time>
      </trkpt>
      <trkpt lat="49.13422" lon="2.19908">
        <ele>96.75</ele>
        <time>2016-10-13T08:27:06Z</time>
      </trkpt>
      <trkpt lat="49.13411" lon="2.19908">
        <ele>95.79</ele>
        <time>2016-10-13T08:27:14Z</time>
      </trkpt>
      <trkpt lat="49.1339" lon="2.1991">
        <ele>94.83</ele>
        <time>2016-10-13T08:27:31Z</time>
      </trkpt>
      <trkpt lat="49.13374" lon="2.1991">
        <ele>92.42</ele>
        <time>2016-10-13T08:27:44Z</time>
      </trkpt>
      <trkpt lat="49.13357" lon="2.1991">
        <ele>90.02</ele>
        <time>2016-10-13T08:28:00Z</time>
      </trkpt>
      <trkpt lat="49.13335" lon="2.19912">
        <ele>88.58</ele>
        <time>2016-10-13T08:28:17Z</time>
      </trkpt>
      <trkpt lat="49.13311" lon="2.19914">
        <ele>90.5</ele>
        <time>2016-10-13T08:28:37Z</time>
      </trkpt>
      <trkpt lat="49.13304" lon="2.19917">
        <ele>92.9</ele>
        <time>2016-10-13T08:28:54Z</time>
      </trkpt>
      <trkpt lat="49.13306" lon="2.19918">
        <ele>92.42</ele>
        <time>2016-10-13T08:29:16Z</time>
      </trkpt>
      <trkpt lat="49.13308" lon="2.19918">
        <ele>90.98</ele>
        <time>2016-10-13T08:29:40Z</time>
      </trkpt>
      <trkpt lat="49.13308" lon="2.19921">
        <ele>88.1</ele>
        <time>2016-10-13T08:30:04Z</time>
      </trkpt>
      <trkpt lat="49.1331" lon="2.19912">
        <ele>87.62</ele>
        <time>2016-10-13T08:30:30Z</time>
      </trkpt>
      <trkpt lat="49.13309" lon="2.19921">
        <ele>90.98</ele>
        <time>2016-10-13T08:30:55Z</time>
      </trkpt>
      <trkpt lat="49.13306" lon="2.19931">
        <ele>90.98</ele>
        <time>2016-10-13T08:31:17Z</time>
      </trkpt>
      <trkpt lat="49.13306" lon="2.19923">
        <ele>90.5</ele>
        <time>2016-10-13T08:31:43Z</time>
      </trkpt>
      <trkpt lat="49.13306" lon="2.19922">
        <ele>90.98</ele>
        <time>2016-10-13T08:32:13Z</time>
      </trkpt>
      <trkpt lat="49.13305" lon="2.19923">
        <ele>93.39</ele>
        <time>2016-10-13T08:32:39Z</time>
      </trkpt>
      <trkpt lat="49.13306" lon="2.19926">
        <ele>90.98</ele>
        <time>2016-10-13T08:33:02Z</time>
      </trkpt>
      <trkpt lat="49.13315" lon="2.1992">
        <ele>89.54</ele>
        <time>2016-10-13T08:33:21Z</time>
      </trkpt>
      <trkpt lat="49.13316" lon="2.19921">
        <ele>89.54</ele>
        <time>2016-10-13T08:33:52Z</time>
      </trkpt>
      <trkpt lat="49.13311" lon="2.19913">
        <ele>91.46</ele>
        <time>2016-10-13T08:34:08Z</time>
      </trkpt>
      <trkpt lat="49.13309" lon="2.19909">
        <ele>87.14</ele>
        <time>2016-10-13T08:34:38Z</time>
      </trkpt>
      <trkpt lat="49.13307" lon="2.1992">
        <ele>86.66</ele>
        <time>2016-10-13T08:35:00Z</time>
      </trkpt>
      <trkpt lat="49.13308" lon="2.19923">
        <ele>86.66</ele>
        <time>2016-10-13T08:35:18Z</time>
      </trkpt>
      <trkpt lat="49.13309" lon="2.19922">
        <ele>87.14</ele>
        <time>2016-10-13T08:35:39Z</time>
      </trkpt>
      <trkpt lat="49.13308" lon="2.19921">
        <ele>87.62</ele>
        <time>2016-10-13T08:36:00Z</time>
      </trkpt>
      <trkpt lat="49.13305" lon="2.19917">
        <ele>87.14</ele>
        <time>2016-10-13T08:36:18Z</time>
      </trkpt>
      <trkpt lat="49.13309" lon="2.19919">
        <ele>90.98</ele>
        <time>2016-10-13T08:36:39Z</time>
      </trkpt>
      <trkpt lat="49.13307" lon="2.19927">
        <ele>91.94</ele>
        <time>2016-10-13T08:37:06Z</time>
      </trkpt>
      <trkpt lat="49.13308" lon="2.1993">
        <ele>92.9</ele>
        <time>2016-10-13T08:37:38Z</time>
      </trkpt>
      <trkpt lat="49.13307" lon="2.19927">
        <ele>93.39</ele>
        <time>2016-10-13T08:37:58Z</time>
      </trkpt>
      <trkpt lat="49.13307" lon="2.19921">
        <ele>93.39</ele>
        <time>2016-10-13T08:38:21Z</time>
      </trkpt>
      <trkpt lat="49.13305" lon="2.19921">
        <ele>95.31</ele>
        <time>2016-10-13T08:38:48Z</time>
      </trkpt>
      <trkpt lat="49.13304" lon="2.19917">
        <ele>90.98</ele>
        <time>2016-10-13T08:39:11Z</time>
      </trkpt>
      <trkpt lat="49.1329" lon="2.19921">
        <ele>89.54</ele>
        <time>2016-10-13T08:39:26Z</time>
      </trkpt>
      <trkpt lat="49.1328" lon="2.19925">
        <ele>88.1</ele>
        <time>2016-10-13T08:39:40Z</time>
      </trkpt>
      <trkpt lat="49.1326" lon="2.1993">
        <ele>87.62</ele>
        <time>2016-10-13T08:39:57Z</time>
      </trkpt>
      <trkpt lat="49.13244" lon="2.19934">
        <ele>90.5</ele>
        <time>2016-10-13T08:40:10Z</time>
      </trkpt>
      <trkpt lat="49.13229" lon="2.19937">
        <ele>90.98</ele>
        <time>2016-10-13T08:40:25Z</time>
      </trkpt>
      <trkpt lat="49.13218" lon="2.19937">
        <ele>91.94</ele>
        <time>2016-10-13T08:40:35Z</time>
      </trkpt>
      <trkpt lat="49.13201" lon="2.19931">
        <ele>92.42</ele>
        <time>2016-10-13T08:40:49Z</time>
      </trkpt>
      <trkpt lat="49.13183" lon="2.19934">
        <ele>93.87</ele>
        <time>2016-10-13T08:41:04Z</time>
      </trkpt>
      <trkpt lat="49.13166" lon="2.19935">
        <ele>94.35</ele>
        <time>2016-10-13T08:41:19Z</time>
      </trkpt>
      <trkpt lat="49.13148" lon="2.19934">
        <ele>94.35</ele>
        <time>2016-10-13T08:41:35Z</time>
      </trkpt>
      <trkpt lat="49.13131" lon="2.19933">
        <ele>95.31</ele>
        <time>2016-10-13T08:41:50Z</time>
      </trkpt>
      <trkpt lat="49.13111" lon="2.19931">
        <ele>96.27</ele>
        <time>2016-10-13T08:42:06Z</time>
      </trkpt>
      <trkpt lat="49.13101" lon="2.19929">
        <ele>95.79</ele>
        <time>2016-10-13T08:42:14Z</time>
      </trkpt>
      <trkpt lat="49.13087" lon="2.1993">
        <ele>96.27</ele>
        <time>2016-10-13T08:42:27Z</time>
      </trkpt>
      <trkpt lat="49.13081" lon="2.1993">
        <ele>96.75</ele>
        <time>2016-10-13T08:42:32Z</time>
      </trkpt>
      <trkpt lat="49.13062" lon="2.19933">
        <ele>97.23</ele>
        <time>2016-10-13T08:42:49Z</time>
      </trkpt>
      <trkpt lat="49.13045" lon="2.19935">
        <ele>95.31</ele>
        <time>2016-10-13T08:43:03Z</time>
      </trkpt>
      <trkpt lat="49.13029" lon="2.19938">
        <ele>95.79</ele>
        <time>2016-10-13T08:43:17Z</time>
      </trkpt>
      <trkpt lat="49.1301" lon="2.19939">
        <ele>98.19</ele>
        <time>2016-10-13T08:43:32Z</time>
      </trkpt>
      <trkpt lat="49.12993" lon="2.19941">
        <ele>98.67</ele>
        <time>2016-10-13T08:43:45Z</time>
      </trkpt>
      <trkpt lat="49.12971" lon="2.19948">
        <ele>99.63</ele>
        <time>2016-10-13T08:44:03Z</time>
      </trkpt>
      <trkpt lat="49.12952" lon="2.19955">
        <ele>100.11</ele>
        <time>2016-10-13T08:44:19Z</time>
      </trkpt>
      <trkpt lat="49.12929" lon="2.19966">
        <ele>100.6</ele>
        <time>2016-10-13T08:44:37Z</time>
      </trkpt>
      <trkpt lat="49.12908" lon="2.19978">
        <ele>100.11</ele>
        <time>2016-10-13T08:44:55Z</time>
      </trkpt>
      <trkpt lat="49.12884" lon="2.19992">
        <ele>100.6</ele>
        <time>2016-10-13T08:45:15Z</time>
      </trkpt>
      <trkpt lat="49.12866" lon="2.20005">
        <ele>101.56</ele>
        <time>2016-10-13T08:45:30Z</time>
      </trkpt>
      <trkpt lat="49.12848" lon="2.20019">
        <ele>102.04</ele>
        <time>2016-10-13T08:45:45Z</time>
      </trkpt>
      <trkpt lat="49.12829" lon="2.20035">
        <ele>102.04</ele>
        <time>2016-10-13T08:46:01Z</time>
      </trkpt>
      <trkpt lat="49.12806" lon="2.20052">
        <ele>101.08</ele>
        <time>2016-10-13T08:46:19Z</time>
      </trkpt>
      <trkpt lat="49.12786" lon="2.20064">
        <ele>101.08</ele>
        <time>2016-10-13T08:46:35Z</time>
      </trkpt>
      <trkpt lat="49.12763" lon="2.20076">
        <ele>100.11</ele>
        <time>2016-10-13T08:46:53Z</time>
      </trkpt>
      <trkpt lat="49.1274" lon="2.20083">
        <ele>100.6</ele>
        <time>2016-10-13T08:47:10Z</time>
      </trkpt>
      <trkpt lat="49.12719" lon="2.20094">
        <ele>100.11</ele>
        <time>2016-10-13T08:47:28Z</time>
      </trkpt>
      <trkpt lat="49.12707" lon="2.20104">
        <ele>99.63</ele>
        <time>2016-10-13T08:47:41Z</time>
      </trkpt>
      <trkpt lat="49.12691" lon="2.20108">
        <ele>98.67</ele>
        <time>2016-10-13T08:47:54Z</time>
      </trkpt>
      <trkpt lat="49.12679" lon="2.20114">
        <ele>98.19</ele>
        <time>2016-10-13T08:48:05Z</time>
      </trkpt>
      <trkpt lat="49.12662" lon="2.20119">
        <ele>98.19</ele>
        <time>2016-10-13T08:48:22Z</time>
      </trkpt>
      <trkpt lat="49.12643" lon="2.20121">
        <ele>97.23</ele>
        <time>2016-10-13T08:48:37Z</time>
      </trkpt>
      <trkpt lat="49.12627" lon="2.20125">
        <ele>95.79</ele>
        <time>2016-10-13T08:48:51Z</time>
      </trkpt>
      <trkpt lat="49.12605" lon="2.20137">
        <ele>96.75</ele>
        <time>2016-10-13T08:49:09Z</time>
      </trkpt>
      <trkpt lat="49.12585" lon="2.20149">
        <ele>96.75</ele>
        <time>2016-10-13T08:49:26Z</time>
      </trkpt>
      <trkpt lat="49.12571" lon="2.20157">
        <ele>97.23</ele>
        <time>2016-10-13T08:49:39Z</time>
      </trkpt>
      <trkpt lat="49.12552" lon="2.20168">
        <ele>98.67</ele>
        <time>2016-10-13T08:49:56Z</time>
      </trkpt>
      <trkpt lat="49.12535" lon="2.20177">
        <ele>98.67</ele>
        <time>2016-10-13T08:50:11Z</time>
      </trkpt>
      <trkpt lat="49.12517" lon="2.20186">
        <ele>98.67</ele>
        <time>2016-10-13T08:50:27Z</time>
      </trkpt>
      <trkpt lat="49.12514" lon="2.20188">
        <ele>98.67</ele>
        <time>2016-10-13T08:50:30Z</time>
      </trkpt>
      <trkpt lat="49.12496" lon="2.20197">
        <ele>99.63</ele>
        <time>2016-10-13T08:50:45Z</time>
      </trkpt>
      <trkpt lat="49.12479" lon="2.20215">
        <ele>99.63</ele>
        <time>2016-10-13T08:51:01Z</time>
      </trkpt>
      <trkpt lat="49.12467" lon="2.20228">
        <ele>98.67</ele>
        <time>2016-10-13T08:51:13Z</time>
      </trkpt>
      <trkpt lat="49.1245" lon="2.2025">
        <ele>96.75</ele>
        <time>2016-10-13T08:51:30Z</time>
      </trkpt>
      <trkpt lat="49.1244" lon="2.20263">
        <ele>95.31</ele>
        <time>2016-10-13T08:51:41Z</time>
      </trkpt>
      <trkpt lat="49.12419" lon="2.20282">
        <ele>95.31</ele>
        <time>2016-10-13T08:52:00Z</time>
      </trkpt>
      <trkpt lat="49.12399" lon="2.20272">
        <ele>94.35</ele>
        <time>2016-10-13T08:52:16Z</time>
      </trkpt>
      <trkpt lat="49.12382" lon="2.20262">
        <ele>91.94</ele>
        <time>2016-10-13T08:52:31Z</time>
      </trkpt>
      <trkpt lat="49.12365" lon="2.20253">
        <ele>92.9</ele>
        <time>2016-10-13T08:52:47Z</time>
      </trkpt>
      <trkpt lat="49.12344" lon="2.20242">
        <ele>93.39</ele>
        <time>2016-10-13T08:53:04Z</time>
      </trkpt>
      <trkpt lat="49.12325" lon="2.20233">
        <ele>95.31</ele>
        <time>2016-10-13T08:53:20Z</time>
      </trkpt>
      <trkpt lat="49.12306" lon="2.20222">
        <ele>96.75</ele>
        <time>2016-10-13T08:53:36Z</time>
      </trkpt>
      <trkpt lat="49.12287" lon="2.20211">
        <ele>97.71</ele>
        <time>2016-10-13T08:53:52Z</time>
      </trkpt>
      <trkpt lat="49.12268" lon="2.20202">
        <ele>99.63</ele>
        <time>2016-10-13T08:54:08Z</time>
      </trkpt>
      <trkpt lat="49.12249" lon="2.20189">
        <ele>100.6</ele>
        <time>2016-10-13T08:54:25Z</time>
      </trkpt>
      <trkpt lat="49.12228" lon="2.20178">
        <ele>101.08</ele>
        <time>2016-10-13T08:54:42Z</time>
      </trkpt>
      <trkpt lat="49.12208" lon="2.20166">
        <ele>101.56</ele>
        <time>2016-10-13T08:54:59Z</time>
      </trkpt>
      <trkpt lat="49.12187" lon="2.20154">
        <ele>103.48</ele>
        <time>2016-10-13T08:55:17Z</time>
      </trkpt>
      <trkpt lat="49.12165" lon="2.20142">
        <ele>102.52</ele>
        <time>2016-10-13T08:55:36Z</time>
      </trkpt>
      <trkpt lat="49.12144" lon="2.2013">
        <ele>101.56</ele>
        <time>2016-10-13T08:55:53Z</time>
      </trkpt>
      <trkpt lat="49.12127" lon="2.20121">
        <ele>100.6</ele>
        <time>2016-10-13T08:56:07Z</time>
      </trkpt>
      <trkpt lat="49.12107" lon="2.20109">
        <ele>101.08</ele>
        <time>2016-10-13T08:56:24Z</time>
      </trkpt>
      <trkpt lat="49.1209" lon="2.201">
        <ele>100.11</ele>
        <time>2016-10-13T08:56:38Z</time>
      </trkpt>
      <trkpt lat="49.1207" lon="2.2009">
        <ele>99.15</ele>
        <time>2016-10-13T08:56:55Z</time>
      </trkpt>
      <trkpt lat="49.12052" lon="2.20081">
        <ele>99.15</ele>
        <time>2016-10-13T08:57:11Z</time>
      </trkpt>
      <trkpt lat="49.12034" lon="2.20071">
        <ele>99.15</ele>
        <time>2016-10-13T08:57:26Z</time>
      </trkpt>
      <trkpt lat="49.12017" lon="2.20061">
        <ele>99.63</ele>
        <time>2016-10-13T08:57:41Z</time>
      </trkpt>
      <trkpt lat="49.11999" lon="2.20051">
        <ele>100.6</ele>
        <time>2016-10-13T08:57:56Z</time>
      </trkpt>
      <trkpt lat="49.11979" lon="2.2004">
        <ele>101.56</ele>
        <time>2016-10-13T08:58:14Z</time>
      </trkpt>
      <trkpt lat="49.11958" lon="2.20027">
        <ele>101.08</ele>
        <time>2016-10-13T08:58:31Z</time>
      </trkpt>
      <trkpt lat="49.11941" lon="2.20018">
        <ele>100.6</ele>
        <time>2016-10-13T08:58:45Z</time>
      </trkpt>
      <trkpt lat="49.11924" lon="2.20008">
        <ele>99.15</ele>
        <time>2016-10-13T08:59:01Z</time>
      </trkpt>
      <trkpt lat="49.11905" lon="2.19997">
        <ele>98.19</ele>
        <time>2016-10-13T08:59:17Z</time>
      </trkpt>
      <trkpt lat="49.11888" lon="2.19986">
        <ele>98.67</ele>
        <time>2016-10-13T08:59:33Z</time>
      </trkpt>
      <trkpt lat="49.11867" lon="2.19976">
        <ele>100.11</ele>
        <time>2016-10-13T08:59:51Z</time>
      </trkpt>
      <trkpt lat="49.11848" lon="2.19964">
        <ele>103</ele>
        <time>2016-10-13T09:00:07Z</time>
      </trkpt>
      <trkpt lat="49.1183" lon="2.19953">
        <ele>103.48</ele>
        <time>2016-10-13T09:00:23Z</time>
      </trkpt>
      <trkpt lat="49.11815" lon="2.19941">
        <ele>103.96</ele>
        <time>2016-10-13T09:00:37Z</time>
      </trkpt>
      <trkpt lat="49.11798" lon="2.19928">
        <ele>104.44</ele>
        <time>2016-10-13T09:00:53Z</time>
      </trkpt>
      <trkpt lat="49.11784" lon="2.19909">
        <ele>106.36</ele>
        <time>2016-10-13T09:01:09Z</time>
      </trkpt>
      <trkpt lat="49.11766" lon="2.19888">
        <ele>108.29</ele>
        <time>2016-10-13T09:01:28Z</time>
      </trkpt>
      <trkpt lat="49.11751" lon="2.1987">
        <ele>107.32</ele>
        <time>2016-10-13T09:01:43Z</time>
      </trkpt>
      <trkpt lat="49.11733" lon="2.19845">
        <ele>107.81</ele>
        <time>2016-10-13T09:02:02Z</time>
      </trkpt>
      <trkpt lat="49.11712" lon="2.1982">
        <ele>106.84</ele>
        <time>2016-10-13T09:02:23Z</time>
      </trkpt>
      <trkpt lat="49.11693" lon="2.19797">
        <ele>106.84</ele>
        <time>2016-10-13T09:02:42Z</time>
      </trkpt>
      <trkpt lat="49.11678" lon="2.1978">
        <ele>108.77</ele>
        <time>2016-10-13T09:02:58Z</time>
      </trkpt>
      <trkpt lat="49.11661" lon="2.19758">
        <ele>112.13</ele>
        <time>2016-10-13T09:03:17Z</time>
      </trkpt>
      <trkpt lat="49.11646" lon="2.19739">
        <ele>113.57</ele>
        <time>2016-10-13T09:03:33Z</time>
      </trkpt>
      <trkpt lat="49.11629" lon="2.19718">
        <ele>114.05</ele>
        <time>2016-10-13T09:03:51Z</time>
      </trkpt>
      <trkpt lat="49.11613" lon="2.19697">
        <ele>115.5</ele>
        <time>2016-10-13T09:04:09Z</time>
      </trkpt>
      <trkpt lat="49.11594" lon="2.19672">
        <ele>117.42</ele>
        <time>2016-10-13T09:04:30Z</time>
      </trkpt>
      <trkpt lat="49.11579" lon="2.19653">
        <ele>119.34</ele>
        <time>2016-10-13T09:04:46Z</time>
      </trkpt>
      <trkpt lat="49.11564" lon="2.19635">
        <ele>119.34</ele>
        <time>2016-10-13T09:05:01Z</time>
      </trkpt>
      <trkpt lat="49.11548" lon="2.19614">
        <ele>118.38</ele>
        <time>2016-10-13T09:05:19Z</time>
      </trkpt>
      <trkpt lat="49.11531" lon="2.19595">
        <ele>116.46</ele>
        <time>2016-10-13T09:05:37Z</time>
      </trkpt>
      <trkpt lat="49.11521" lon="2.19581">
        <ele>115.01</ele>
        <time>2016-10-13T09:05:51Z</time>
      </trkpt>
      <trkpt lat="49.11506" lon="2.19561">
        <ele>115.01</ele>
        <time>2016-10-13T09:06:07Z</time>
      </trkpt>
      <trkpt lat="49.11488" lon="2.19541">
        <ele>114.53</ele>
        <time>2016-10-13T09:06:25Z</time>
      </trkpt>
      <trkpt lat="49.11471" lon="2.19523">
        <ele>114.05</ele>
        <time>2016-10-13T09:06:41Z</time>
      </trkpt>
      <trkpt lat="49.11452" lon="2.19506">
        <ele>113.57</ele>
        <time>2016-10-13T09:06:59Z</time>
      </trkpt>
      <trkpt lat="49.11434" lon="2.19486">
        <ele>113.09</ele>
        <time>2016-10-13T09:07:16Z</time>
      </trkpt>
      <trkpt lat="49.11419" lon="2.19467">
        <ele>113.09</ele>
        <time>2016-10-13T09:07:33Z</time>
      </trkpt>
      <trkpt lat="49.11409" lon="2.19459">
        <ele>112.13</ele>
        <time>2016-10-13T09:07:41Z</time>
      </trkpt>
      <trkpt lat="49.11392" lon="2.19443">
        <ele>111.65</ele>
        <time>2016-10-13T09:07:57Z</time>
      </trkpt>
      <trkpt lat="49.11373" lon="2.19427">
        <ele>110.69</ele>
        <time>2016-10-13T09:08:14Z</time>
      </trkpt>
      <trkpt lat="49.11354" lon="2.19414">
        <ele>109.25</ele>
        <time>2016-10-13T09:08:30Z</time>
      </trkpt>
      <trkpt lat="49.11337" lon="2.19401">
        <ele>107.81</ele>
        <time>2016-10-13T09:08:44Z</time>
      </trkpt>
      <trkpt lat="49.1132" lon="2.19387">
        <ele>108.29</ele>
        <time>2016-10-13T09:08:59Z</time>
      </trkpt>
      <trkpt lat="49.11301" lon="2.19372">
        <ele>109.73</ele>
        <time>2016-10-13T09:09:16Z</time>
      </trkpt>
      <trkpt lat="49.11299" lon="2.1937">
        <ele>109.73</ele>
        <time>2016-10-13T09:09:18Z</time>
      </trkpt>
      <trkpt lat="49.11291" lon="2.19362">
        <ele>109.25</ele>
        <time>2016-10-13T09:09:26Z</time>
      </trkpt>
      <trkpt lat="49.11274" lon="2.19349">
        <ele>108.77</ele>
        <time>2016-10-13T09:09:42Z</time>
      </trkpt>
      <trkpt lat="49.11259" lon="2.19338">
        <ele>107.81</ele>
        <time>2016-10-13T09:09:55Z</time>
      </trkpt>
      <trkpt lat="49.11241" lon="2.19323">
        <ele>107.32</ele>
        <time>2016-10-13T09:10:11Z</time>
      </trkpt>
      <trkpt lat="49.11221" lon="2.19316">
        <ele>107.81</ele>
        <time>2016-10-13T09:10:27Z</time>
      </trkpt>
      <trkpt lat="49.11217" lon="2.19314">
        <ele>107.32</ele>
        <time>2016-10-13T09:10:32Z</time>
      </trkpt>
      <trkpt lat="49.11214" lon="2.19297">
        <ele>105.4</ele>
        <time>2016-10-13T09:10:44Z</time>
      </trkpt>
      <trkpt lat="49.11212" lon="2.19267">
        <ele>103.96</ele>
        <time>2016-10-13T09:11:00Z</time>
      </trkpt>
      <trkpt lat="49.11213" lon="2.19246">
        <ele>103.96</ele>
        <time>2016-10-13T09:11:13Z</time>
      </trkpt>
      <trkpt lat="49.11216" lon="2.19221">
        <ele>104.92</ele>
        <time>2016-10-13T09:11:29Z</time>
      </trkpt>
      <trkpt lat="49.11217" lon="2.192">
        <ele>104.44</ele>
        <time>2016-10-13T09:11:42Z</time>
      </trkpt>
      <trkpt lat="49.11217" lon="2.19192">
        <ele>104.44</ele>
        <time>2016-10-13T09:11:46Z</time>
      </trkpt>
      <trkpt lat="49.11215" lon="2.19165">
        <ele>104.44</ele>
        <time>2016-10-13T09:12:01Z</time>
      </trkpt>
      <trkpt lat="49.11215" lon="2.19137">
        <ele>104.44</ele>
        <time>2016-10-13T09:12:18Z</time>
      </trkpt>
      <trkpt lat="49.11216" lon="2.19134">
        <ele>104.92</ele>
        <time>2016-10-13T09:12:39Z</time>
      </trkpt>
      <trkpt lat="49.11214" lon="2.19108">
        <ele>104.44</ele>
        <time>2016-10-13T09:12:56Z</time>
      </trkpt>
      <trkpt lat="49.11209" lon="2.19078">
        <ele>103.48</ele>
        <time>2016-10-13T09:13:14Z</time>
      </trkpt>
      <trkpt lat="49.11203" lon="2.19044">
        <ele>104.92</ele>
        <time>2016-10-13T09:13:34Z</time>
      </trkpt>
      <trkpt lat="49.11194" lon="2.19012">
        <ele>106.36</ele>
        <time>2016-10-13T09:13:54Z</time>
      </trkpt>
      <trkpt lat="49.11193" lon="2.18989">
        <ele>106.84</ele>
        <time>2016-10-13T09:14:11Z</time>
      </trkpt>
      <trkpt lat="49.11193" lon="2.18955">
        <ele>105.4</ele>
        <time>2016-10-13T09:14:31Z</time>
      </trkpt>
      <trkpt lat="49.11194" lon="2.18929">
        <ele>103.48</ele>
        <time>2016-10-13T09:14:49Z</time>
      </trkpt>
      <trkpt lat="49.11202" lon="2.18893">
        <ele>103.96</ele>
        <time>2016-10-13T09:15:09Z</time>
      </trkpt>
      <trkpt lat="49.11206" lon="2.18864">
        <ele>106.36</ele>
        <time>2016-10-13T09:15:27Z</time>
      </trkpt>
      <trkpt lat="49.11206" lon="2.18833">
        <ele>109.25</ele>
        <time>2016-10-13T09:15:47Z</time>
      </trkpt>
      <trkpt lat="49.11197" lon="2.18799">
        <ele>108.29</ele>
        <time>2016-10-13T09:16:07Z</time>
      </trkpt>
      <trkpt lat="49.11206" lon="2.18765">
        <ele>105.4</ele>
        <time>2016-10-13T09:16:27Z</time>
      </trkpt>
      <trkpt lat="49.11214" lon="2.18729">
        <ele>102.52</ele>
        <time>2016-10-13T09:16:47Z</time>
      </trkpt>
      <trkpt lat="49.11223" lon="2.18699">
        <ele>103</ele>
        <time>2016-10-13T09:17:06Z</time>
      </trkpt>
      <trkpt lat="49.11228" lon="2.1867">
        <ele>100.6</ele>
        <time>2016-10-13T09:17:25Z</time>
      </trkpt>
      <trkpt lat="49.1124" lon="2.18644">
        <ele>96.75</ele>
        <time>2016-10-13T09:17:44Z</time>
      </trkpt>
      <trkpt lat="49.11255" lon="2.18615">
        <ele>94.35</ele>
        <time>2016-10-13T09:18:04Z</time>
      </trkpt>
      <trkpt lat="49.11271" lon="2.18588">
        <ele>92.42</ele>
        <time>2016-10-13T09:18:25Z</time>
      </trkpt>
      <trkpt lat="49.11287" lon="2.18562">
        <ele>92.9</ele>
        <time>2016-10-13T09:18:43Z</time>
      </trkpt>
      <trkpt lat="49.11301" lon="2.18535">
        <ele>88.58</ele>
        <time>2016-10-13T09:19:04Z</time>
      </trkpt>
      <trkpt lat="49.1131" lon="2.18498">
        <ele>87.14</ele>
        <time>2016-10-13T09:19:24Z</time>
      </trkpt>
      <trkpt lat="49.11313" lon="2.18468">
        <ele>83.29</ele>
        <time>2016-10-13T09:19:43Z</time>
      </trkpt>
      <trkpt lat="49.11325" lon="2.18428">
        <ele>83.77</ele>
        <time>2016-10-13T09:20:06Z</time>
      </trkpt>
      <trkpt lat="49.11339" lon="2.18392">
        <ele>78</ele>
        <time>2016-10-13T09:20:30Z</time>
      </trkpt>
      <trkpt lat="49.11354" lon="2.18379">
        <ele>73.68</ele>
        <time>2016-10-13T09:20:48Z</time>
      </trkpt>
      <trkpt lat="49.11375" lon="2.18373">
        <ele>70.31</ele>
        <time>2016-10-13T09:21:08Z</time>
      </trkpt>
      <trkpt lat="49.11397" lon="2.18368">
        <ele>69.83</ele>
        <time>2016-10-13T09:21:28Z</time>
      </trkpt>
      <trkpt lat="49.11416" lon="2.1835">
        <ele>70.31</ele>
        <time>2016-10-13T09:21:48Z</time>
      </trkpt>
      <trkpt lat="49.11422" lon="2.18325">
        <ele>66.47</ele>
        <time>2016-10-13T09:22:07Z</time>
      </trkpt>
      <trkpt lat="49.11418" lon="2.18291">
        <ele>64.07</ele>
        <time>2016-10-13T09:22:27Z</time>
      </trkpt>
      <trkpt lat="49.11411" lon="2.18248">
        <ele>63.1</ele>
        <time>2016-10-13T09:22:51Z</time>
      </trkpt>
      <trkpt lat="49.11409" lon="2.1823">
        <ele>57.82</ele>
        <time>2016-10-13T09:23:05Z</time>
      </trkpt>
      <trkpt lat="49.11405" lon="2.18195">
        <ele>53.97</ele>
        <time>2016-10-13T09:23:26Z</time>
      </trkpt>
      <trkpt lat="49.114" lon="2.18164">
        <ele>50.61</ele>
        <time>2016-10-13T09:23:46Z</time>
      </trkpt>
      <trkpt lat="49.11393" lon="2.18137">
        <ele>47.72</ele>
        <time>2016-10-13T09:24:03Z</time>
      </trkpt>
      <trkpt lat="49.11391" lon="2.18103">
        <ele>47.24</ele>
        <time>2016-10-13T09:24:22Z</time>
      </trkpt>
      <trkpt lat="49.11389" lon="2.18071">
        <ele>44.36</ele>
        <time>2016-10-13T09:24:40Z</time>
      </trkpt>
      <trkpt lat="49.11396" lon="2.18049">
        <ele>41.95</ele>
        <time>2016-10-13T09:24:55Z</time>
      </trkpt>
      <trkpt lat="49.11401" lon="2.18026">
        <ele>40.03</ele>
        <time>2016-10-13T09:25:10Z</time>
      </trkpt>
      <trkpt lat="49.11407" lon="2.18004">
        <ele>38.11</ele>
        <time>2016-10-13T09:25:27Z</time>
      </trkpt>
      <trkpt lat="49.11422" lon="2.17988">
        <ele>36.19</ele>
        <time>2016-10-13T09:25:43Z</time>
      </trkpt>
      <trkpt lat="49.11428" lon="2.17984">
        <ele>36.67</ele>
        <time>2016-10-13T09:25:49Z</time>
      </trkpt>
      <trkpt lat="49.11435" lon="2.17967">
        <ele>36.67</ele>
        <time>2016-10-13T09:25:59Z</time>
      </trkpt>
      <trkpt lat="49.11434" lon="2.17939">
        <ele>36.67</ele>
        <time>2016-10-13T09:26:14Z</time>
      </trkpt>
      <trkpt lat="49.11433" lon="2.179">
        <ele>35.71</ele>
        <time>2016-10-13T09:26:34Z</time>
      </trkpt>
      <trkpt lat="49.11429" lon="2.17866">
        <ele>36.67</ele>
        <time>2016-10-13T09:26:52Z</time>
      </trkpt>
      <trkpt lat="49.11431" lon="2.1783">
        <ele>35.71</ele>
        <time>2016-10-13T09:27:11Z</time>
      </trkpt>
      <trkpt lat="49.11431" lon="2.17828">
        <ele>35.71</ele>
        <time>2016-10-13T09:27:12Z</time>
      </trkpt>
      <trkpt lat="49.1144" lon="2.17792">
        <ele>38.59</ele>
        <time>2016-10-13T09:27:31Z</time>
      </trkpt>
      <trkpt lat="49.11445" lon="2.17758">
        <ele>36.19</ele>
        <time>2016-10-13T09:27:50Z</time>
      </trkpt>
      <trkpt lat="49.11446" lon="2.17726">
        <ele>34.74</ele>
        <time>2016-10-13T09:28:07Z</time>
      </trkpt>
      <trkpt lat="49.11445" lon="2.17696">
        <ele>36.19</ele>
        <time>2016-10-13T09:28:24Z</time>
      </trkpt>
      <trkpt lat="49.11439" lon="2.17662">
        <ele>37.15</ele>
        <time>2016-10-13T09:28:42Z</time>
      </trkpt>
      <trkpt lat="49.1144" lon="2.1765">
        <ele>37.15</ele>
        <time>2016-10-13T09:28:53Z</time>
      </trkpt>
      <trkpt lat="49.11457" lon="2.17654">
        <ele>37.15</ele>
        <time>2016-10-13T09:29:09Z</time>
      </trkpt>
      <trkpt lat="49.11479" lon="2.17659">
        <ele>36.19</ele>
        <time>2016-10-13T09:29:27Z</time>
      </trkpt>
      <trkpt lat="49.11499" lon="2.17662">
        <ele>34.74</ele>
        <time>2016-10-13T09:29:44Z</time>
      </trkpt>
      <trkpt lat="49.11514" lon="2.17664">
        <ele>32.34</ele>
        <time>2016-10-13T09:29:59Z</time>
      </trkpt>
      <trkpt lat="49.11532" lon="2.17672">
        <ele>31.38</ele>
        <time>2016-10-13T09:30:17Z</time>
      </trkpt>
      <trkpt lat="49.11553" lon="2.17678">
        <ele>31.38</ele>
        <time>2016-10-13T09:30:36Z</time>
      </trkpt>
      <trkpt lat="49.11577" lon="2.17682">
        <ele>35.71</ele>
        <time>2016-10-13T09:30:51Z</time>
      </trkpt>
      <trkpt lat="49.11598" lon="2.17688">
        <ele>36.67</ele>
        <time>2016-10-13T09:31:07Z</time>
      </trkpt>
      <trkpt lat="49.11614" lon="2.17694">
        <ele>37.63</ele>
        <time>2016-10-13T09:31:21Z</time>
      </trkpt>
      <trkpt lat="49.1163" lon="2.17696">
        <ele>40.51</ele>
        <time>2016-10-13T09:31:36Z</time>
      </trkpt>
      <trkpt lat="49.11643" lon="2.17699">
        <ele>38.11</ele>
        <time>2016-10-13T09:31:51Z</time>
      </trkpt>
      <trkpt lat="49.11663" lon="2.17705">
        <ele>35.71</ele>
        <time>2016-10-13T09:32:08Z</time>
      </trkpt>
      <trkpt lat="49.11685" lon="2.17711">
        <ele>33.3</ele>
        <time>2016-10-13T09:32:24Z</time>
      </trkpt>
      <trkpt lat="49.11711" lon="2.17724">
        <ele>36.19</ele>
        <time>2016-10-13T09:32:41Z</time>
      </trkpt>
      <trkpt lat="49.11729" lon="2.17732">
        <ele>36.67</ele>
        <time>2016-10-13T09:32:56Z</time>
      </trkpt>
      <trkpt lat="49.11746" lon="2.17741">
        <ele>35.71</ele>
        <time>2016-10-13T09:33:12Z</time>
      </trkpt>
      <trkpt lat="49.11765" lon="2.17751">
        <ele>36.19</ele>
        <time>2016-10-13T09:33:28Z</time>
      </trkpt>
      <trkpt lat="49.11779" lon="2.17759">
        <ele>33.78</ele>
        <time>2016-10-13T09:33:43Z</time>
      </trkpt>
      <trkpt lat="49.11796" lon="2.17772">
        <ele>33.78</ele>
        <time>2016-10-13T09:33:57Z</time>
      </trkpt>
      <trkpt lat="49.11815" lon="2.17786">
        <ele>31.86</ele>
        <time>2016-10-13T09:34:13Z</time>
      </trkpt>
      <trkpt lat="49.11827" lon="2.17799">
        <ele>29.94</ele>
        <time>2016-10-13T09:34:29Z</time>
      </trkpt>
      <trkpt lat="49.11845" lon="2.17816">
        <ele>31.86</ele>
        <time>2016-10-13T09:34:44Z</time>
      </trkpt>
      <trkpt lat="49.1186" lon="2.17827">
        <ele>30.42</ele>
        <time>2016-10-13T09:35:00Z</time>
      </trkpt>
      <trkpt lat="49.11868" lon="2.17836">
        <ele>29.94</ele>
        <time>2016-10-13T09:35:07Z</time>
      </trkpt>
      <trkpt lat="49.11887" lon="2.17857">
        <ele>31.38</ele>
        <time>2016-10-13T09:35:22Z</time>
      </trkpt>
      <trkpt lat="49.11904" lon="2.17877">
        <ele>33.78</ele>
        <time>2016-10-13T09:35:37Z</time>
      </trkpt>
      <trkpt lat="49.11918" lon="2.17892">
        <ele>35.23</ele>
        <time>2016-10-13T09:35:51Z</time>
      </trkpt>
      <trkpt lat="49.11934" lon="2.179">
        <ele>34.74</ele>
        <time>2016-10-13T09:36:07Z</time>
      </trkpt>
      <trkpt lat="49.11957" lon="2.17908">
        <ele>33.3</ele>
        <time>2016-10-13T09:36:23Z</time>
      </trkpt>
      <trkpt lat="49.11981" lon="2.17912">
        <ele>35.23</ele>
        <time>2016-10-13T09:36:42Z</time>
      </trkpt>
      <trkpt lat="49.11997" lon="2.17911">
        <ele>35.71</ele>
        <time>2016-10-13T09:36:58Z</time>
      </trkpt>
      <trkpt lat="49.12014" lon="2.1791">
        <ele>34.74</ele>
        <time>2016-10-13T09:37:14Z</time>
      </trkpt>
      <trkpt lat="49.12044" lon="2.17904">
        <ele>40.99</ele>
        <time>2016-10-13T09:37:32Z</time>
      </trkpt>
      <trkpt lat="49.12063" lon="2.17895">
        <ele>41.47</ele>
        <time>2016-10-13T09:37:48Z</time>
      </trkpt>
      <trkpt lat="49.12079" lon="2.1789">
        <ele>37.15</ele>
        <time>2016-10-13T09:38:03Z</time>
      </trkpt>
      <trkpt lat="49.12096" lon="2.17881">
        <ele>35.71</ele>
        <time>2016-10-13T09:38:17Z</time>
      </trkpt>
      <trkpt lat="49.12109" lon="2.17872">
        <ele>36.19</ele>
        <time>2016-10-13T09:38:31Z</time>
      </trkpt>
      <trkpt lat="49.12118" lon="2.17866">
        <ele>38.11</ele>
        <time>2016-10-13T09:38:48Z</time>
      </trkpt>
      <trkpt lat="49.12126" lon="2.17868">
        <ele>40.03</ele>
        <time>2016-10-13T09:39:04Z</time>
      </trkpt>
      <trkpt lat="49.12127" lon="2.17885">
        <ele>40.99</ele>
        <time>2016-10-13T09:39:20Z</time>
      </trkpt>
      <trkpt lat="49.12126" lon="2.17883">
        <ele>39.55</ele>
        <time>2016-10-13T09:39:43Z</time>
      </trkpt>
      <trkpt lat="49.12138" lon="2.17871">
        <ele>42.92</ele>
        <time>2016-10-13T09:40:09Z</time>
      </trkpt>
      <trkpt lat="49.12139" lon="2.17885">
        <ele>43.88</ele>
        <time>2016-10-13T09:40:43Z</time>
      </trkpt>
      <trkpt lat="49.12139" lon="2.17877">
        <ele>47.72</ele>
        <time>2016-10-13T09:41:07Z</time>
      </trkpt>
      <trkpt lat="49.12133" lon="2.17857">
        <ele>53.01</ele>
        <time>2016-10-13T09:41:19Z</time>
      </trkpt>
      <trkpt lat="49.12134" lon="2.17841">
        <ele>51.57</ele>
        <time>2016-10-13T09:41:32Z</time>
      </trkpt>
      <trkpt lat="49.12149" lon="2.17821">
        <ele>50.61</ele>
        <time>2016-10-13T09:41:46Z</time>
      </trkpt>
      <trkpt lat="49.12166" lon="2.17793">
        <ele>46.28</ele>
        <time>2016-10-13T09:42:04Z</time>
      </trkpt>
      <trkpt lat="49.12174" lon="2.17777">
        <ele>43.4</ele>
        <time>2016-10-13T09:42:12Z</time>
      </trkpt>
      <trkpt lat="49.12183" lon="2.1775">
        <ele>44.36</ele>
        <time>2016-10-13T09:42:28Z</time>
      </trkpt>
      <trkpt lat="49.12206" lon="2.17704">
        <ele>42.92</ele>
        <time>2016-10-13T09:42:50Z</time>
      </trkpt>
      <trkpt lat="49.12216" lon="2.17681">
        <ele>42.92</ele>
        <time>2016-10-13T09:43:04Z</time>
      </trkpt>
      <trkpt lat="49.12224" lon="2.17661">
        <ele>44.84</ele>
        <time>2016-10-13T09:43:20Z</time>
      </trkpt>
      <trkpt lat="49.12239" lon="2.17641">
        <ele>45.8</ele>
        <time>2016-10-13T09:43:37Z</time>
      </trkpt>
      <trkpt lat="49.12245" lon="2.17633">
        <ele>45.8</ele>
        <time>2016-10-13T09:43:44Z</time>
      </trkpt>
      <trkpt lat="49.12259" lon="2.17611">
        <ele>44.36</ele>
        <time>2016-10-13T09:44:02Z</time>
      </trkpt>
      <trkpt lat="49.12275" lon="2.1759">
        <ele>43.4</ele>
        <time>2016-10-13T09:44:18Z</time>
      </trkpt>
      <trkpt lat="49.12291" lon="2.1757">
        <ele>42.44</ele>
        <time>2016-10-13T09:44:36Z</time>
      </trkpt>
      <trkpt lat="49.12311" lon="2.17551">
        <ele>41.47</ele>
        <time>2016-10-13T09:44:53Z</time>
      </trkpt>
      <trkpt lat="49.12327" lon="2.17534">
        <ele>42.92</ele>
        <time>2016-10-13T09:45:07Z</time>
      </trkpt>
      <trkpt lat="49.12341" lon="2.17513">
        <ele>43.4</ele>
        <time>2016-10-13T09:45:23Z</time>
      </trkpt>
      <trkpt lat="49.1236" lon="2.17492">
        <ele>40.99</ele>
        <time>2016-10-13T09:45:42Z</time>
      </trkpt>
      <trkpt lat="49.12375" lon="2.17476">
        <ele>39.07</ele>
        <time>2016-10-13T09:45:56Z</time>
      </trkpt>
      <trkpt lat="49.12378" lon="2.17473">
        <ele>38.59</ele>
        <time>2016-10-13T09:45:59Z</time>
      </trkpt>
      <trkpt lat="49.12394" lon="2.17456">
        <ele>39.55</ele>
        <time>2016-10-13T09:46:16Z</time>
      </trkpt>
      <trkpt lat="49.12406" lon="2.17437">
        <ele>39.07</ele>
        <time>2016-10-13T09:46:29Z</time>
      </trkpt>
      <trkpt lat="49.12418" lon="2.17416">
        <ele>40.99</ele>
        <time>2016-10-13T09:46:44Z</time>
      </trkpt>
      <trkpt lat="49.1242" lon="2.17412">
        <ele>40.99</ele>
        <time>2016-10-13T09:46:46Z</time>
      </trkpt>
      <trkpt lat="49.12431" lon="2.17393">
        <ele>40.99</ele>
        <time>2016-10-13T09:46:59Z</time>
      </trkpt>
      <trkpt lat="49.12442" lon="2.1737">
        <ele>39.07</ele>
        <time>2016-10-13T09:47:14Z</time>
      </trkpt>
      <trkpt lat="49.12451" lon="2.1735">
        <ele>40.51</ele>
        <time>2016-10-13T09:47:25Z</time>
      </trkpt>
      <trkpt lat="49.12454" lon="2.17341">
        <ele>40.51</ele>
        <time>2016-10-13T09:47:30Z</time>
      </trkpt>
      <trkpt lat="49.12464" lon="2.17314">
        <ele>40.51</ele>
        <time>2016-10-13T09:47:46Z</time>
      </trkpt>
      <trkpt lat="49.12468" lon="2.17291">
        <ele>40.03</ele>
        <time>2016-10-13T09:48:00Z</time>
      </trkpt>
      <trkpt lat="49.12474" lon="2.17261">
        <ele>40.03</ele>
        <time>2016-10-13T09:48:15Z</time>
      </trkpt>
      <trkpt lat="49.12479" lon="2.17235">
        <ele>38.11</ele>
        <time>2016-10-13T09:48:30Z</time>
      </trkpt>
      <trkpt lat="49.12485" lon="2.17201">
        <ele>36.19</ele>
        <time>2016-10-13T09:48:48Z</time>
      </trkpt>
      <trkpt lat="49.12489" lon="2.17176">
        <ele>35.23</ele>
        <time>2016-10-13T09:49:02Z</time>
      </trkpt>
      <trkpt lat="49.1249" lon="2.17143">
        <ele>37.15</ele>
        <time>2016-10-13T09:49:16Z</time>
      </trkpt>
      <trkpt lat="49.12494" lon="2.17113">
        <ele>39.07</ele>
        <time>2016-10-13T09:49:30Z</time>
      </trkpt>
      <trkpt lat="49.12499" lon="2.17083">
        <ele>41.47</ele>
        <time>2016-10-13T09:49:45Z</time>
      </trkpt>
      <trkpt lat="49.12505" lon="2.17051">
        <ele>43.88</ele>
        <time>2016-10-13T09:50:01Z</time>
      </trkpt>
      <trkpt lat="49.12504" lon="2.17034">
        <ele>45.8</ele>
        <time>2016-10-13T09:50:14Z</time>
      </trkpt>
      <trkpt lat="49.12506" lon="2.17028">
        <ele>45.32</ele>
        <time>2016-10-13T09:50:18Z</time>
      </trkpt>
      <trkpt lat="49.12514" lon="2.1701">
        <ele>43.88</ele>
        <time>2016-10-13T09:50:31Z</time>
      </trkpt>
      <trkpt lat="49.12515" lon="2.17009">
        <ele>43.88</ele>
        <time>2016-10-13T09:50:32Z</time>
      </trkpt>
      <trkpt lat="49.12521" lon="2.16998">
        <ele>42.92</ele>
        <time>2016-10-13T09:50:46Z</time>
      </trkpt>
      <trkpt lat="49.12525" lon="2.1699">
        <ele>41.47</ele>
        <time>2016-10-13T09:51:02Z</time>
      </trkpt>
      <trkpt lat="49.12525" lon="2.16985">
        <ele>40.99</ele>
        <time>2016-10-13T09:51:06Z</time>
      </trkpt>
      <trkpt lat="49.12527" lon="2.16982">
        <ele>41.47</ele>
        <time>2016-10-13T09:51:08Z</time>
      </trkpt>
      <trkpt lat="49.12538" lon="2.16959">
        <ele>44.36</ele>
        <time>2016-10-13T09:51:23Z</time>
      </trkpt>
      <trkpt lat="49.12544" lon="2.16942">
        <ele>40.03</ele>
        <time>2016-10-13T09:51:37Z</time>
      </trkpt>
      <trkpt lat="49.12555" lon="2.16926">
        <ele>39.07</ele>
        <time>2016-10-13T09:51:51Z</time>
      </trkpt>
      <trkpt lat="49.12582" lon="2.16909">
        <ele>43.4</ele>
        <time>2016-10-13T09:52:07Z</time>
      </trkpt>
      <trkpt lat="49.12594" lon="2.16899">
        <ele>43.88</ele>
        <time>2016-10-13T09:52:16Z</time>
      </trkpt>
      <trkpt lat="49.12607" lon="2.1689">
        <ele>44.36</ele>
        <time>2016-10-13T09:52:26Z</time>
      </trkpt>
      <trkpt lat="49.12629" lon="2.16881">
        <ele>45.32</ele>
        <time>2016-10-13T09:52:43Z</time>
      </trkpt>
      <trkpt lat="49.12644" lon="2.1687">
        <ele>45.32</ele>
        <time>2016-10-13T09:52:58Z</time>
      </trkpt>
      <trkpt lat="49.1266" lon="2.16858">
        <ele>47.24</ele>
        <time>2016-10-13T09:53:13Z</time>
      </trkpt>
      <trkpt lat="49.12683" lon="2.16847">
        <ele>46.28</ele>
        <time>2016-10-13T09:53:34Z</time>
      </trkpt>
      <trkpt lat="49.12708" lon="2.16833">
        <ele>43.88</ele>
        <time>2016-10-13T09:53:56Z</time>
      </trkpt>
      <trkpt lat="49.12729" lon="2.16819">
        <ele>41.95</ele>
        <time>2016-10-13T09:54:16Z</time>
      </trkpt>
      <trkpt lat="49.12755" lon="2.16805">
        <ele>40.99</ele>
        <time>2016-10-13T09:54:37Z</time>
      </trkpt>
      <trkpt lat="49.12785" lon="2.16793">
        <ele>41.95</ele>
        <time>2016-10-13T09:54:57Z</time>
      </trkpt>
      <trkpt lat="49.12807" lon="2.16776">
        <ele>44.84</ele>
        <time>2016-10-13T09:55:13Z</time>
      </trkpt>
      <trkpt lat="49.12826" lon="2.1676">
        <ele>44.84</ele>
        <time>2016-10-13T09:55:30Z</time>
      </trkpt>
      <trkpt lat="49.12847" lon="2.16746">
        <ele>45.32</ele>
        <time>2016-10-13T09:55:49Z</time>
      </trkpt>
      <trkpt lat="49.1285" lon="2.16745">
        <ele>45.32</ele>
        <time>2016-10-13T09:55:52Z</time>
      </trkpt>
      <trkpt lat="49.12859" lon="2.1674">
        <ele>44.84</ele>
        <time>2016-10-13T09:56:00Z</time>
      </trkpt>
      <trkpt lat="49.12871" lon="2.16734">
        <ele>42.92</ele>
        <time>2016-10-13T09:56:15Z</time>
      </trkpt>
      <trkpt lat="49.12876" lon="2.16734">
        <ele>42.44</ele>
        <time>2016-10-13T09:56:20Z</time>
      </trkpt>
      <trkpt lat="49.12879" lon="2.16736">
        <ele>41.95</ele>
        <time>2016-10-13T09:56:24Z</time>
      </trkpt>
      <trkpt lat="49.12895" lon="2.16735">
        <ele>40.51</ele>
        <time>2016-10-13T09:56:40Z</time>
      </trkpt>
      <trkpt lat="49.12898" lon="2.16731">
        <ele>40.51</ele>
        <time>2016-10-13T09:56:55Z</time>
      </trkpt>
      <trkpt lat="49.12902" lon="2.16733">
        <ele>43.4</ele>
        <time>2016-10-13T09:57:12Z</time>
      </trkpt>
      <trkpt lat="49.12902" lon="2.1673">
        <ele>43.4</ele>
        <time>2016-10-13T09:57:33Z</time>
      </trkpt>
    </trkseg>
  </trk>
</gpx>